Time;durP1;ratioP1;P1;durP2;ratioP2;P2;SDS_P1;SDS_P2;PMS_P1;PMS_P2;Temp;Humidity;BMP_temperature;BMP_pressure;BME280_temperature;BME280_humidity;BME280_pressure;Samples;Min_cycle;Max_cycle;Signal;HPM_P1;HPM_P2
2023/05/10 00:01:21;;;;;;;23.55;4.03;;;10.10;99.90;;;;;;4924290;29;20032;-91
2023/05/10 00:03:47;;;;;;;16.50;4.57;;;10.10;99.90;;;;;;4915139;29;20028;-95
2023/05/10 00:06:13;;;;;;;22.23;4.38;;;10.10;99.90;;;;;;4915369;29;20024;-94
2023/05/10 00:08:38;;;;;;;22.05;4.25;;;10.10;99.90;;;;;;4931824;29;20047;-94
2023/05/10 00:11:04;;;;;;;19.08;4.70;;;10.10;99.90;;;;;;4931692;29;20036;-94
2023/05/10 00:13:30;;;;;;;19.40;4.38;;;10.10;99.90;;;;;;4939014;29;20032;-90
2023/05/10 00:15:55;;;;;;;17.50;4.25;;;10.10;99.90;;;;;;4943004;29;20064;-92
2023/05/10 00:18:21;;;;;;;19.30;3.47;;;10.00;99.90;;;;;;4923651;29;20063;-95
2023/05/10 00:20:46;;;;;;;11.02;3.92;;;10.00;99.90;;;;;;4905318;29;20092;-96
2023/05/10 00:23:12;;;;;;;22.60;3.78;;;10.10;99.90;;;;;;4910409;29;20052;-94
2023/05/10 00:25:38;;;;;;;17.60;4.82;;;10.00;99.90;;;;;;4905414;29;20032;-95
2023/05/10 00:28:04;;;;;;;21.05;5.07;;;10.00;99.90;;;;;;4920378;29;20494;-95
2023/05/10 00:30:29;;;;;;;10.57;3.80;;;10.00;99.90;;;;;;4912566;29;20051;-94
2023/05/10 00:32:55;;;;;;;22.63;4.68;;;9.90;99.90;;;;;;4895426;29;20032;-95
2023/05/10 00:35:21;;;;;;;20.40;4.45;;;9.90;99.90;;;;;;4895151;29;20063;-95
2023/05/10 00:37:47;;;;;;;12.98;4.03;;;9.90;99.90;;;;;;4910417;29;20115;-94
2023/05/10 00:40:13;;;;;;;17.27;4.57;;;9.90;99.90;;;;;;4895710;29;20052;-96
2023/05/10 00:42:38;;;;;;;15.10;4.05;;;9.80;99.90;;;;;;4894310;29;20033;-94
2023/05/10 00:45:05;;;;;;;22.25;5.35;;;9.80;99.90;;;;;;4892705;29;20101;-94
2023/05/10 00:47:31;;;;;;;14.18;3.72;;;9.80;99.90;;;;;;4893504;29;20033;-96
2023/05/10 00:49:57;;;;;;;19.08;4.22;;;9.80;99.90;;;;;;4899429;29;20036;-90
2023/05/10 00:52:23;;;;;;;17.67;4.28;;;9.80;99.90;;;;;;4895621;29;20044;-95
2023/05/10 00:54:52;;;;;;;25.27;4.20;;;9.80;99.90;;;;;;4909403;29;20077;-96
2023/05/10 00:57:18;;;;;;;17.20;3.42;;;9.80;99.90;;;;;;4892030;29;20057;-95
2023/05/10 00:59:44;;;;;;;18.17;3.22;;;9.80;99.90;;;;;;4874045;29;20027;-92
2023/05/10 01:02:10;;;;;;;18.48;4.68;;;9.80;99.90;;;;;;4870676;29;20120;-95
2023/05/10 01:04:37;;;;;;;16.80;4.20;;;9.80;99.90;;;;;;4884756;29;20025;-95
2023/05/10 01:07:03;;;;;;;19.48;4.90;;;9.70;99.90;;;;;;4887042;29;20033;-95
2023/05/10 01:09:28;;;;;;;17.17;4.47;;;9.60;99.90;;;;;;4868578;29;20087;-96
2023/05/10 01:11:55;;;;;;;13.93;4.30;;;9.60;99.90;;;;;;4868169;29;20161;-93
2023/05/10 01:14:21;;;;;;;17.40;4.15;;;9.50;99.90;;;;;;4869201;29;20025;-94
2023/05/10 01:16:49;;;;;;;18.80;4.30;;;9.40;99.90;;;;;;4869102;29;20530;-94
2023/05/10 01:19:27;;;;;;;21.00;4.65;;;9.40;99.90;;;;;;4892219;29;20017;-93
2023/05/10 01:22:12;;;;;;;18.63;3.75;;;9.30;99.90;;;;;;4877806;29;20025;-95
2023/05/10 01:25:21;;;;;;;9.93;3.38;;;9.30;99.90;;;;;;4889389;29;20029;-92
2023/05/10 01:27:55;;;;;;;19.25;3.88;;;9.30;99.90;;;;;;4876040;29;20041;-95
2023/05/10 01:30:43;;;;;;;12.35;3.03;;;9.20;99.90;;;;;;4887730;29;20036;-94
2023/05/10 01:33:21;;;;;;;16.75;3.90;;;9.20;99.90;;;;;;4895423;29;20025;-94
2023/05/10 01:36:25;;;;;;;20.25;4.75;;;9.10;99.90;;;;;;4886508;29;20035;-95
2023/05/10 01:39:05;;;;;;;13.95;3.25;;;9.10;99.90;;;;;;4797080;29;20062;-96
2023/05/10 01:41:45;;;;;;;13.00;3.50;;;9.10;99.90;;;;;;4801432;29;20132;-93
2023/05/10 01:44:20;;;;;;;15.77;3.35;;;9.00;99.90;;;;;;4803697;29;20079;-93
2023/05/10 01:46:52;;;;;;;13.15;3.65;;;9.00;99.90;;;;;;4812260;29;20059;-95
2023/05/10 01:49:26;;;;;;;18.58;3.15;;;8.90;99.90;;;;;;4811391;29;20054;-92
2023/05/10 01:51:56;;;;;;;20.77;4.28;;;8.90;99.90;;;;;;4794413;29;20088;-95
2023/05/10 01:54:24;;;;;;;15.73;4.32;;;8.80;99.90;;;;;;4809323;29;20091;-96
2023/05/10 01:57:05;;;;;;;21.27;4.80;;;8.80;99.90;;;;;;4812007;29;20116;-95
2023/05/10 01:59:40;;;;;;;12.68;4.18;;;8.80;99.90;;;;;;4810245;29;20035;-94
2023/05/10 02:02:07;;;;;;;16.92;3.72;;;8.80;99.90;;;;;;4819188;29;20241;-94
2023/05/10 02:04:35;;;;;;;15.70;3.65;;;8.70;99.90;;;;;;4809552;29;20111;-95
2023/05/10 02:07:01;;;;;;;10.23;3.22;;;8.60;99.90;;;;;;4816746;29;20031;-94
2023/05/10 02:09:29;;;;;;;17.85;4.05;;;8.50;99.90;;;;;;4813513;29;20046;-94
2023/05/10 02:11:58;;;;;;;14.25;3.15;;;8.50;99.90;;;;;;4810680;29;20133;-95
2023/05/10 02:14:26;;;;;;;18.52;4.32;;;8.50;99.90;;;;;;4821509;29;20149;-95
2023/05/10 02:16:53;;;;;;;9.57;3.08;;;8.50;99.90;;;;;;4864886;29;20036;-94
2023/05/10 02:19:20;;;;;;;19.92;3.60;;;8.40;99.90;;;;;;4866802;29;20021;-95
2023/05/10 02:21:46;;;;;;;19.20;4.63;;;8.40;99.90;;;;;;4882595;29;20041;-93
2023/05/10 02:24:14;;;;;;;16.52;4.07;;;8.40;99.90;;;;;;4883158;29;20025;-95
2023/05/10 02:26:41;;;;;;;16.17;4.25;;;8.40;99.90;;;;;;4884457;29;20052;-93
2023/05/10 02:29:07;;;;;;;17.92;4.03;;;8.40;99.90;;;;;;4869278;29;20021;-94
2023/05/10 02:31:35;;;;;;;18.38;3.83;;;8.40;99.90;;;;;;4872055;29;20052;-94
2023/05/10 02:34:02;;;;;;;17.35;3.67;;;8.40;99.90;;;;;;4872719;29;20065;-92
2023/05/10 02:36:28;;;;;;;15.88;3.58;;;8.40;99.90;;;;;;4868379;29;20120;-93
2023/05/10 02:38:54;;;;;;;16.92;3.50;;;8.40;99.90;;;;;;4869103;29;20115;-90
2023/05/10 02:41:22;;;;;;;16.48;3.60;;;8.40;99.90;;;;;;4869746;29;20028;-95
2023/05/10 02:43:52;;;;;;;14.55;3.55;;;8.30;99.90;;;;;;4887194;29;20033;-93
2023/05/10 02:46:18;;;;;;;11.90;3.95;;;8.30;99.90;;;;;;4871112;29;20028;-94
2023/05/10 02:48:44;;;;;;;11.68;3.53;;;8.20;99.90;;;;;;4888166;29;20064;-92
2023/05/10 02:51:13;;;;;;;11.30;3.30;;;8.20;99.90;;;;;;4879049;29;20041;-93
2023/05/10 02:53:43;;;;;;;16.15;3.30;;;8.10;99.90;;;;;;4873547;29;20029;-96
2023/05/10 02:56:15;;;;;;;15.20;3.15;;;8.10;99.90;;;;;;4888559;29;20064;-94
2023/05/10 02:58:40;;;;;;;15.60;3.75;;;8.00;99.90;;;;;;4870494;29;20025;-94
2023/05/10 03:01:07;;;;;;;17.50;4.13;;;8.00;99.90;;;;;;4870360;29;20162;-93
2023/05/10 03:03:33;;;;;;;14.25;3.83;;;8.00;99.90;;;;;;4869784;29;20060;-93
2023/05/10 03:05:59;;;;;;;17.15;3.22;;;8.00;99.90;;;;;;4869601;29;20415;-96
2023/05/10 03:08:25;;;;;;;17.85;4.18;;;8.00;99.90;;;;;;4886657;29;20149;-92
2023/05/10 03:10:59;;;;;;;14.48;4.78;;;8.10;99.90;;;;;;4881490;29;20114;-93
2023/05/10 03:13:35;;;;;;;17.98;4.97;;;8.10;99.90;;;;;;4899728;29;20081;-92
2023/05/10 03:16:11;;;;;;;26.80;6.93;;;8.10;99.90;;;;;;4886086;29;20017;-87
2023/05/10 03:18:44;;;;;;;18.77;5.10;;;8.20;99.90;;;;;;4886411;29;20053;-85
2023/05/10 03:21:13;;;;;;;14.00;4.55;;;8.10;99.90;;;;;;4886266;29;20041;-86
2023/05/10 03:23:51;;;;;;;14.82;4.05;;;8.10;99.90;;;;;;4901081;29;20061;-93
2023/05/10 03:26:28;;;;;;;14.90;4.57;;;8.10;99.90;;;;;;4879585;29;20116;-96
2023/05/10 03:28:54;;;;;;;12.98;3.85;;;8.10;99.90;;;;;;4881850;29;20033;-95
2023/05/10 03:31:21;;;;;;;8.57;3.53;;;8.00;99.90;;;;;;4874009;29;20044;-93
2023/05/10 03:33:48;;;;;;;17.90;4.00;;;8.00;99.90;;;;;;4871662;29;20021;-95
2023/05/10 03:36:14;;;;;;;14.80;3.95;;;7.90;99.90;;;;;;4870559;29;20077;-93
2023/05/10 03:38:39;;;;;;;13.13;3.75;;;7.90;99.90;;;;;;4887116;29;20041;-95
2023/05/10 03:41:05;;;;;;;19.00;3.65;;;7.90;99.90;;;;;;4869502;29;20041;-95
2023/05/10 03:43:31;;;;;;;13.18;4.30;;;7.80;99.90;;;;;;4870185;29;20033;-95
2023/05/10 03:45:56;;;;;;;24.13;4.85;;;7.80;99.90;;;;;;4869780;29;20036;-94
2023/05/10 03:48:22;;;;;;;24.42;5.07;;;7.80;99.90;;;;;;4875897;29;20033;-93
2023/05/10 03:50:49;;;;;;;17.38;4.88;;;7.90;99.90;;;;;;4881660;29;20088;-94
2023/05/10 03:53:15;;;;;;;18.35;5.43;;;7.90;99.90;;;;;;4874997;29;20061;-95
2023/05/10 03:55:41;;;;;;;22.52;5.63;;;7.90;99.90;;;;;;4871072;29;20047;-94
2023/05/10 03:58:06;;;;;;;29.00;6.25;;;7.90;99.90;;;;;;4869465;29;20033;-95
2023/05/10 04:00:32;;;;;;;22.65;6.53;;;7.90;99.90;;;;;;4885459;29;20064;-95
2023/05/10 04:02:58;;;;;;;26.45;7.07;;;7.90;99.90;;;;;;4867615;29;20033;-93
2023/05/10 04:05:23;;;;;;;22.15;7.25;;;8.00;99.90;;;;;;4868160;29;20029;-95
2023/05/10 04:07:50;;;;;;;21.65;6.78;;;8.00;99.90;;;;;;4867560;29;20184;-95
2023/05/10 04:10:16;;;;;;;20.38;7.65;;;8.00;99.90;;;;;;4884844;29;20156;-95
2023/05/10 04:12:41;;;;;;;18.88;5.82;;;8.10;99.90;;;;;;4869340;29;20198;-95
2023/05/10 04:15:08;;;;;;;23.60;7.60;;;8.20;99.90;;;;;;4877773;29;20056;-94
2023/05/10 04:17:34;;;;;;;22.15;6.55;;;8.10;99.90;;;;;;4859604;29;20065;-94
2023/05/10 04:19:59;;;;;;;18.30;6.82;;;8.10;99.90;;;;;;4884431;29;20073;-96
2023/05/10 04:22:25;;;;;;;17.63;6.05;;;8.10;99.90;;;;;;4883593;29;20033;-95
2023/05/10 04:24:50;;;;;;;20.80;6.60;;;8.10;99.90;;;;;;4866562;29;20077;-95
2023/05/10 04:27:16;;;;;;;22.05;7.30;;;8.20;99.90;;;;;;4866502;29;20043;-93
2023/05/10 04:29:42;;;;;;;22.33;6.32;;;8.20;99.90;;;;;;4873552;29;20037;-93
2023/05/10 04:32:09;;;;;;;24.70;7.57;;;8.20;99.90;;;;;;4882460;29;20515;-95
2023/05/10 04:34:36;;;;;;;28.83;8.15;;;8.20;99.90;;;;;;4884294;29;20084;-96
2023/05/10 04:37:01;;;;;;;20.63;6.90;;;8.20;99.90;;;;;;4869377;29;20048;-95
2023/05/10 04:39:27;;;;;;;19.67;6.72;;;8.30;99.90;;;;;;4872380;29;20033;-95
2023/05/10 04:41:52;;;;;;;26.08;6.80;;;8.30;99.90;;;;;;4897857;29;20028;-92
2023/05/10 04:44:18;;;;;;;28.17;6.85;;;8.30;99.90;;;;;;4886770;29;20065;-95
2023/05/10 04:46:44;;;;;;;20.33;6.57;;;8.30;99.90;;;;;;4872413;29;20041;-95
2023/05/10 04:49:09;;;;;;;23.95;6.72;;;8.30;99.90;;;;;;4869315;29;20040;-93
2023/05/10 04:51:35;;;;;;;21.20;6.65;;;8.20;99.90;;;;;;4883690;29;20048;-93
2023/05/10 04:54:00;;;;;;;17.77;6.50;;;8.30;99.90;;;;;;4882619;29;20028;-92
2023/05/10 04:56:26;;;;;;;17.33;6.70;;;8.30;99.90;;;;;;4882909;29;20057;-93
2023/05/10 04:58:52;;;;;;;16.13;6.68;;;8.20;99.90;;;;;;4866525;29;20056;-90
2023/05/10 05:01:17;;;;;;;24.63;6.07;;;8.20;99.90;;;;;;4883115;29;20069;-92
2023/05/10 05:03:43;;;;;;;16.52;6.07;;;8.20;99.90;;;;;;4886947;29;20499;-93
2023/05/10 05:06:08;;;;;;;19.77;6.35;;;8.10;99.90;;;;;;4886415;29;20089;-94
2023/05/10 05:08:34;;;;;;;19.30;7.70;;;8.10;99.90;;;;;;4868637;29;20093;-92
2023/05/10 05:11:00;;;;;;;19.75;6.43;;;8.10;99.90;;;;;;4869532;29;20483;-96
2023/05/10 05:13:25;;;;;;;23.33;7.85;;;8.10;99.90;;;;;;4867285;29;20032;-95
2023/05/10 05:15:51;;;;;;;21.23;6.85;;;8.10;99.90;;;;;;4881621;29;20036;-95
2023/05/10 05:18:17;;;;;;;27.90;7.53;;;8.10;99.90;;;;;;4865712;29;20037;-91
2023/05/10 05:20:42;;;;;;;18.42;6.65;;;8.10;99.90;;;;;;4865453;29;20033;-90
2023/05/10 05:23:08;;;;;;;21.45;7.75;;;8.10;99.90;;;;;;4882271;29;20546;-94
2023/05/10 05:25:33;;;;;;;23.85;7.47;;;8.10;99.90;;;;;;4865414;29;20029;-95
2023/05/10 05:27:59;;;;;;;24.55;7.40;;;8.20;99.90;;;;;;4889229;29;20049;-90
2023/05/10 05:30:25;;;;;;;23.92;7.18;;;8.20;99.90;;;;;;4892487;29;20049;-94
2023/05/10 05:32:51;;;;;;;21.08;6.97;;;8.20;99.90;;;;;;4866573;29;20029;-94
2023/05/10 05:35:16;;;;;;;23.15;7.75;;;8.20;99.90;;;;;;4875105;29;20033;-92
2023/05/10 05:37:42;;;;;;;22.15;7.93;;;8.20;99.90;;;;;;4893667;29;20523;-94
2023/05/10 05:40:08;;;;;;;20.73;7.05;;;8.20;99.90;;;;;;4893997;29;20029;-96
2023/05/10 05:42:34;;;;;;;21.83;7.55;;;8.20;99.90;;;;;;4891746;29;20094;-94
2023/05/10 05:44:59;;;;;;;20.77;6.72;;;8.30;99.90;;;;;;4866552;29;20032;-95
2023/05/10 05:47:25;;;;;;;23.00;8.25;;;8.30;99.90;;;;;;4881310;29;20112;-94
2023/05/10 05:49:51;;;;;;;28.90;8.38;;;8.30;99.90;;;;;;4882009;29;20036;-95
2023/05/10 05:52:16;;;;;;;26.70;8.27;;;8.40;99.90;;;;;;4865090;29;20033;-93
2023/05/10 05:54:42;;;;;;;19.58;7.70;;;8.40;99.90;;;;;;4866863;29;20029;-94
2023/05/10 05:57:08;;;;;;;23.70;8.07;;;8.40;99.90;;;;;;4869235;29;20104;-94
2023/05/10 05:59:34;;;;;;;20.45;7.93;;;8.50;99.90;;;;;;4867707;29;20032;-94
2023/05/10 06:02:00;;;;;;;27.98;9.45;;;8.50;99.90;;;;;;4876684;29;20028;-94
2023/05/10 06:04:26;;;;;;;20.45;8.73;;;8.60;99.90;;;;;;4900355;29;20037;-95
2023/05/10 06:06:51;;;;;;;21.13;8.40;;;8.60;99.90;;;;;;4885697;29;20041;-96
2023/05/10 06:09:17;;;;;;;24.27;9.15;;;8.70;99.90;;;;;;4909127;29;20028;-90
2023/05/10 06:11:43;;;;;;;26.73;9.07;;;8.80;99.90;;;;;;4903990;29;20045;-94
2023/05/10 06:14:09;;;;;;;28.60;10.55;;;8.80;99.90;;;;;;4905650;29;20052;-94
2023/05/10 06:16:34;;;;;;;22.88;8.75;;;8.90;99.90;;;;;;4887052;29;20034;-94
2023/05/10 06:19:00;;;;;;;24.15;8.85;;;8.90;99.90;;;;;;4902490;29;20520;-95
2023/05/10 06:21:26;;;;;;;23.80;9.40;;;9.00;99.90;;;;;;4898906;29;20036;-95
2023/05/10 06:23:52;;;;;;;29.23;9.07;;;9.10;99.90;;;;;;4899626;29;20053;-93
2023/05/10 06:26:20;;;;;;;16.60;7.88;;;9.10;99.90;;;;;;4887350;29;20029;-96
2023/05/10 06:28:46;;;;;;;25.75;8.98;;;9.20;99.90;;;;;;4879382;29;20073;-95
2023/05/10 06:31:12;;;;;;;23.40;9.05;;;9.20;99.90;;;;;;4879958;29;20091;-96
2023/05/10 06:33:41;;;;;;;26.45;8.35;;;9.30;99.90;;;;;;4878472;29;20020;-96
2023/05/10 06:36:09;;;;;;;24.88;9.25;;;9.40;99.90;;;;;;4902499;29;20080;-96
2023/05/10 06:38:35;;;;;;;27.67;8.75;;;9.50;99.90;;;;;;4896991;29;20036;-96
2023/05/10 06:41:01;;;;;;;18.95;7.50;;;9.60;99.90;;;;;;4878097;29;20048;-93
2023/05/10 06:43:28;;;;;;;29.73;9.10;;;9.60;99.90;;;;;;4878120;29;20045;-95
2023/05/10 06:45:54;;;;;;;24.30;7.95;;;9.70;99.90;;;;;;4877106;29;20049;-96
2023/05/10 06:48:19;;;;;;;21.70;7.53;;;9.80;99.90;;;;;;4883545;29;20033;-96
2023/05/10 06:50:45;;;;;;;18.17;7.13;;;9.90;99.90;;;;;;4881015;29;20125;-95
2023/05/10 06:53:11;;;;;;;26.17;7.70;;;10.00;99.90;;;;;;4896593;29;20039;-96
2023/05/10 06:55:37;;;;;;;25.45;7.60;;;10.10;99.90;;;;;;4890161;29;20045;-95
2023/05/10 06:58:03;;;;;;;25.98;7.05;;;10.10;99.90;;;;;;4880663;29;20032;-96
2023/05/10 07:00:28;;;;;;;16.80;7.82;;;10.30;99.90;;;;;;4871000;29;20029;-95
2023/05/10 07:02:54;;;;;;;20.85;7.15;;;10.40;99.90;;;;;;4899318;29;20583;-94
2023/05/10 07:05:20;;;;;;;16.05;6.68;;;10.50;99.90;;;;;;4888150;29;20032;-89
2023/05/10 07:07:46;;;;;;;16.23;6.38;;;10.60;99.90;;;;;;4901895;29;20080;-87
2023/05/10 07:10:12;;;;;;;14.93;5.65;;;10.80;99.90;;;;;;4907975;29;20036;-91
2023/05/10 07:12:38;;;;;;;13.80;5.63;;;10.90;99.90;;;;;;4883917;29;20033;-93
2023/05/10 07:15:05;;;;;;;17.20;4.95;;;11.00;99.90;;;;;;4879585;29;20061;-95
2023/05/10 07:17:33;;;;;;;14.38;4.53;;;11.20;99.90;;;;;;4881284;29;20044;-96
2023/05/10 07:20:01;;;;;;;19.75;4.10;;;11.30;99.90;;;;;;4882590;29;20017;-92
2023/05/10 07:22:27;;;;;;;13.98;4.55;;;11.40;99.90;;;;;;4895601;29;20057;-93
2023/05/10 07:24:53;;;;;;;9.93;3.20;;;11.50;99.90;;;;;;4867214;29;20033;-95
2023/05/10 07:27:19;;;;;;;10.82;3.10;;;11.70;99.90;;;;;;4904656;29;20067;-93
2023/05/10 07:29:44;;;;;;;14.02;3.90;;;11.70;99.90;;;;;;4894863;29;20065;-93
2023/05/10 07:32:10;;;;;;;10.70;3.80;;;11.80;99.90;;;;;;4887845;29;20032;-91
2023/05/10 07:34:36;;;;;;;16.13;4.18;;;11.90;99.90;;;;;;4887104;29;20029;-92
2023/05/10 07:37:01;;;;;;;14.95;6.65;;;11.90;99.90;;;;;;4893462;29;20040;-93
2023/05/10 07:39:27;;;;;;;11.23;5.60;;;12.00;99.90;;;;;;4873139;29;20078;-93
2023/05/10 07:41:54;;;;;;;18.45;6.80;;;12.00;99.90;;;;;;4888154;29;20021;-93
2023/05/10 07:44:21;;;;;;;15.38;6.85;;;12.00;99.90;;;;;;4873702;29;20570;-94
2023/05/10 07:46:47;;;;;;;18.25;6.75;;;12.10;99.90;;;;;;4887523;29;20029;-92
2023/05/10 07:49:13;;;;;;;14.95;5.10;;;12.20;99.90;;;;;;4873493;29;20116;-93
2023/05/10 07:51:39;;;;;;;13.63;3.90;;;12.30;99.90;;;;;;4878089;29;20064;-93
2023/05/10 07:54:04;;;;;;;13.85;4.32;;;12.30;99.90;;;;;;4874197;29;20058;-94
2023/05/10 07:56:32;;;;;;;14.85;3.72;;;12.40;99.90;;;;;;4877230;29;20052;-95
2023/05/10 07:58:59;;;;;;;7.13;3.20;;;12.50;99.90;;;;;;4875921;29;20017;-94
2023/05/10 08:01:25;;;;;;;16.75;4.00;;;12.60;99.90;;;;;;4890453;29;20116;-94
2023/05/10 08:03:51;;;;;;;10.98;2.72;;;12.70;99.90;;;;;;4858596;29;20106;-93
2023/05/10 08:06:18;;;;;;;13.48;3.15;;;12.70;99.90;;;;;;4871322;29;20025;-94
2023/05/10 08:08:49;;;;;;;18.73;3.83;;;12.80;99.90;;;;;;4876805;29;20028;-93
2023/05/10 08:11:15;;;;;;;10.30;2.92;;;12.80;99.90;;;;;;4872823;29;20097;-94
2023/05/10 08:13:41;;;;;;;14.25;3.30;;;12.80;99.90;;;;;;4874382;29;20132;-94
2023/05/10 08:16:07;;;;;;;9.32;3.17;;;12.90;99.90;;;;;;4880978;29;20478;-92
2023/05/10 08:18:32;;;;;;;10.23;3.10;;;13.00;99.90;;;;;;4874237;29;20116;-92
2023/05/10 08:20:58;;;;;;;10.70;3.35;;;13.10;99.90;;;;;;4891187;29;20562;-93
2023/05/10 08:23:23;;;;;;;11.80;3.88;;;13.20;99.90;;;;;;4878930;29;20036;-94
2023/05/10 08:25:49;;;;;;;11.25;2.80;;;13.30;99.90;;;;;;4877655;29;20033;-94
2023/05/10 08:28:15;;;;;;;12.80;3.17;;;13.40;99.90;;;;;;4877508;29;20150;-93
2023/05/10 08:30:40;;;;;;;13.90;3.20;;;13.60;99.90;;;;;;4882312;29;20148;-92
2023/05/10 08:33:06;;;;;;;13.38;3.58;;;13.70;99.90;;;;;;4878466;29;20025;-93
2023/05/10 08:35:33;;;;;;;8.13;2.30;;;13.80;99.90;;;;;;4883951;29;20049;-95
2023/05/10 08:37:58;;;;;;;8.65;2.28;;;13.90;99.90;;;;;;4886086;29;20021;-94
2023/05/10 08:40:25;;;;;;;9.98;2.53;;;14.00;99.90;;;;;;4881197;29;20047;-92
2023/05/10 08:43:22;;;;;;;9.57;2.28;;;14.10;99.90;;;;;;4874824;29;20081;-95
2023/05/10 08:45:51;;;;;;;11.55;2.30;;;14.20;99.90;;;;;;4894617;29;20028;-94
2023/05/10 08:48:17;;;;;;;15.48;3.13;;;14.30;99.90;;;;;;4894713;29;20096;-94
2023/05/10 08:50:47;;;;;;;10.00;2.20;;;14.40;99.90;;;;;;4884804;29;20056;-94
2023/05/10 08:53:16;;;;;;;10.07;2.20;;;14.40;99.90;;;;;;4893578;29;20024;-90
2023/05/10 08:55:42;;;;;;;18.38;2.60;;;14.50;99.90;;;;;;4913578;29;20037;-86
2023/05/10 08:58:09;;;;;;;11.80;2.28;;;14.50;99.90;;;;;;4906214;29;20040;-90
2023/05/10 09:00:35;;;;;;;9.25;2.30;;;14.60;99.90;;;;;;4912851;29;20036;-95
2023/05/10 09:03:03;;;;;;;9.90;2.55;;;14.50;99.90;;;;;;4901550;29;20033;-95
2023/05/10 09:05:28;;;;;;;8.00;2.05;;;14.60;99.90;;;;;;4872377;29;20029;-94
2023/05/10 09:07:54;;;;;;;7.38;2.03;;;14.50;99.90;;;;;;4904454;29;20057;-91
2023/05/10 09:10:21;;;;;;;9.52;2.53;;;14.60;99.90;;;;;;4907881;29;20044;-93
2023/05/10 09:12:48;;;;;;;6.32;2.50;;;14.60;99.90;;;;;;4897346;29;20156;-88
2023/05/10 09:15:16;;;;;;;9.85;2.78;;;14.60;99.90;;;;;;4907825;29;20021;-84
2023/05/10 09:17:43;;;;;;;6.68;2.40;;;14.60;99.90;;;;;;4907578;29;20095;-87
2023/05/10 09:20:09;;;;;;;6.15;2.80;;;14.60;99.90;;;;;;4906556;29;20049;-87
2023/05/10 09:22:35;;;;;;;6.95;3.00;;;14.60;99.90;;;;;;4922976;29;20031;-88
2023/05/10 09:25:15;;;;;;;9.80;3.20;;;14.60;99.90;;;;;;4921138;29;20016;-87
2023/05/10 09:27:44;;;;;;;7.00;2.30;;;14.50;99.90;;;;;;4906976;29;20051;-86
2023/05/10 09:30:15;;;;;;;6.73;2.30;;;14.50;99.90;;;;;;4906861;29;20029;-85
2023/05/10 09:32:43;;;;;;;3.85;2.10;;;14.60;99.90;;;;;;4906834;29;20276;-86
2023/05/10 09:35:10;;;;;;;5.72;2.25;;;14.70;99.90;;;;;;4895445;29;20047;-84
2023/05/10 09:37:36;;;;;;;7.85;2.35;;;14.90;99.90;;;;;;4911760;29;20115;-89
2023/05/10 09:40:05;;;;;;;5.40;2.20;;;15.00;99.90;;;;;;4921798;29;20028;-91
2023/05/10 09:42:31;;;;;;;6.97;2.50;;;15.20;99.90;;;;;;4903922;29;20076;-93
2023/05/10 09:45:02;;;;;;;7.10;2.38;;;15.30;99.90;;;;;;4903887;29;20016;-90
2023/05/10 09:47:27;;;;;;;;;;;15.50;99.90;;;;;;4906991;29;20110;-90
2023/05/10 09:49:57;;;;;;;2.88;1.70;;;15.70;99.90;;;;;;4906041;29;19903;-91
2023/05/10 09:52:23;;;;;;;11.52;2.90;;;15.80;99.90;;;;;;4921948;29;20023;-94
2023/05/10 09:54:55;;;;;;;4.85;2.03;;;15.80;99.90;;;;;;4904963;29;20033;-93
2023/05/10 09:57:22;;;;;;;4.97;1.92;;;15.80;99.90;;;;;;4904254;29;20041;-94
2023/05/10 09:59:47;;;;;;;4.93;2.10;;;15.70;99.90;;;;;;4919467;29;20016;-96
2023/05/10 10:02:14;;;;;;;3.22;1.90;;;15.60;99.90;;;;;;4902849;29;20020;-93
2023/05/10 10:04:40;;;;;;;5.85;2.13;;;15.50;99.90;;;;;;4884827;29;20056;-93
2023/05/10 10:07:06;;;;;;;6.45;2.28;;;15.60;99.90;;;;;;4876667;29;20085;-95
2023/05/10 10:09:33;;;;;;;4.55;2.03;;;15.80;99.90;;;;;;4901659;29;20025;-91
2023/05/10 10:12:00;;;;;;;3.20;1.70;;;16.00;99.90;;;;;;4884079;29;20045;-94
2023/05/10 10:14:25;;;;;;;4.32;1.50;;;16.30;99.90;;;;;;4882125;29;20026;-96
2023/05/10 10:16:52;;;;;;;5.55;1.50;;;16.60;99.90;;;;;;4883508;29;20016;-92
2023/05/10 10:19:21;;;;;;;5.53;2.08;;;16.70;99.90;;;;;;4886571;29;20029;-94
2023/05/10 10:21:49;;;;;;;3.03;1.60;;;16.80;99.70;;;;;;4878573;29;20084;-94
2023/05/10 10:24:14;;;;;;;3.03;1.60;;;16.70;99.10;;;;;;4888288;29;20029;-95
2023/05/10 10:26:42;;;;;;;3.22;1.42;;;16.60;98.90;;;;;;4909196;29;20039;-95
2023/05/10 10:29:24;;;;;;;5.30;1.55;;;16.50;98.70;;;;;;4895091;29;20057;-95
2023/05/10 10:32:08;;;;;;;4.40;1.83;;;16.30;98.30;;;;;;4900438;29;20045;-94
2023/05/10 10:34:34;;;;;;;4.32;1.90;;;16.10;98.80;;;;;;4871715;29;20029;-96
2023/05/10 10:37:05;;;;;;;6.85;2.15;;;16.00;99.30;;;;;;4877066;29;20521;-95
2023/05/10 10:39:31;;;;;;;5.55;2.20;;;15.90;99.90;;;;;;4873650;29;20115;-94
2023/05/10 10:41:57;;;;;;;5.15;2.35;;;15.70;99.90;;;;;;4882309;29;20017;-94
2023/05/10 10:44:26;;;;;;;6.45;2.47;;;15.60;99.90;;;;;;4871654;29;20498;-92
2023/05/10 10:47:11;;;;;;;5.15;2.50;;;15.50;99.90;;;;;;4896846;29;20032;-89
2023/05/10 10:49:39;;;;;;;3.75;2.40;;;15.40;99.90;;;;;;4876737;29;20037;-94
2023/05/10 10:52:20;;;;;;;5.15;3.03;;;15.40;99.90;;;;;;4892142;29;20054;-95
2023/05/10 10:54:57;;;;;;;5.90;2.80;;;15.30;99.90;;;;;;4886889;29;20550;-94
2023/05/10 10:57:23;;;;;;;5.72;2.55;;;15.40;99.90;;;;;;4900488;29;20045;-95
2023/05/10 10:59:49;;;;;;;4.55;2.63;;;15.40;99.90;;;;;;4897461;29;20071;-93
2023/05/10 11:02:48;;;;;;;4.60;2.30;;;15.50;99.90;;;;;;4901780;29;20020;-91
2023/05/10 11:05:23;;;;;;;3.22;2.25;;;15.80;99.90;;;;;;4898084;29;20132;-95
2023/05/10 11:07:57;;;;;;;4.45;2.40;;;16.00;99.90;;;;;;4892192;29;20060;-95
2023/05/10 11:10:24;;;;;;;3.45;2.03;;;16.30;99.90;;;;;;4905442;29;20442;-88
2023/05/10 11:13:05;;;;;;;2.40;1.55;;;16.60;99.90;;;;;;4893951;29;20073;-94
2023/05/10 11:15:36;;;;;;;3.38;1.63;;;17.10;99.90;;;;;;4884386;29;20005;-95
2023/05/10 11:18:19;;;;;;;2.55;1.42;;;17.40;99.90;;;;;;4883160;29;20049;-90
2023/05/10 11:20:51;;;;;;;2.22;1.10;;;17.60;99.90;;;;;;4875652;29;20044;-93
2023/05/10 11:23:17;;;;;;;3.75;1.42;;;17.70;99.90;;;;;;4887569;29;20057;-94
2023/05/10 11:25:44;;;;;;;1.33;1.13;;;17.70;99.90;;;;;;4886758;29;20021;-93
2023/05/10 11:28:10;;;;;;;4.45;1.20;;;17.70;99.90;;;;;;4882282;29;20060;-93
2023/05/10 11:30:40;;;;;;;2.78;1.50;;;17.60;99.90;;;;;;4877868;29;20037;-91
2023/05/10 11:33:07;;;;;;;5.53;1.50;;;17.50;99.90;;;;;;4884549;29;20029;-93
2023/05/10 11:35:40;;;;;;;3.17;1.70;;;17.50;99.90;;;;;;4883248;29;20049;-92
2023/05/10 11:38:10;;;;;;;3.67;1.60;;;17.40;99.90;;;;;;4885486;29;20032;-93
2023/05/10 11:40:36;;;;;;;3.83;1.10;;;17.30;99.90;;;;;;4882057;29;20104;-94
2023/05/10 11:43:03;;;;;;;3.30;1.00;;;17.30;99.90;;;;;;4869657;29;20266;-95
2023/05/10 11:45:31;;;;;;;2.22;1.10;;;17.20;99.90;;;;;;4881299;29;20082;-95
2023/05/10 11:47:58;;;;;;;4.85;1.20;;;17.00;99.90;;;;;;4891556;29;20029;-94
2023/05/10 11:50:24;;;;;;;2.67;1.20;;;16.90;99.90;;;;;;4874091;29;20067;-94
2023/05/10 11:52:56;;;;;;;3.88;1.27;;;16.90;99.90;;;;;;4871675;29;20029;-93
2023/05/10 11:55:24;;;;;;;1.88;0.80;;;16.90;99.90;;;;;;4869903;29;20033;-93
2023/05/10 11:57:53;;;;;;;1.90;0.70;;;16.80;99.90;;;;;;4896555;29;20052;-94
2023/05/10 12:00:19;;;;;;;0.32;0.30;;;16.70;99.60;;;;;;4881677;29;20112;-94
2023/05/10 12:02:45;;;;;;;1.60;0.40;;;16.50;99.10;;;;;;4903457;29;20028;-95
2023/05/10 12:05:11;;;;;;;2.17;0.38;;;16.30;98.40;;;;;;4904979;29;20063;-89
2023/05/10 12:07:36;;;;;;;1.45;0.63;;;16.20;98.00;;;;;;4911342;29;20029;-93
2023/05/10 12:10:10;;;;;;;0.47;0.20;;;16.00;98.10;;;;;;4886115;29;20110;-91
2023/05/10 12:12:44;;;;;;;0.80;0.70;;;15.70;99.10;;;;;;4886960;29;20039;-95
2023/05/10 12:15:18;;;;;;;1.27;0.52;;;15.60;99.90;;;;;;4905120;29;20089;-92
2023/05/10 12:17:45;;;;;;;0.73;0.43;;;15.50;99.90;;;;;;4903548;29;20073;-94
2023/05/10 12:20:21;;;;;;;0.93;0.65;;;15.50;99.90;;;;;;4890446;29;20058;-91
2023/05/10 12:22:52;;;;;;;0.52;0.38;;;15.60;99.90;;;;;;4889028;29;20025;-88
2023/05/10 12:25:20;;;;;;;0.40;0.40;;;15.70;99.90;;;;;;4900427;29;20041;-93
2023/05/10 12:27:53;;;;;;;0.93;0.70;;;15.90;99.90;;;;;;4902069;29;20451;-93
2023/05/10 12:30:30;;;;;;;1.15;0.63;;;16.00;99.90;;;;;;4915104;29;20029;-93
2023/05/10 12:33:07;;;;;;;1.67;0.80;;;16.20;99.90;;;;;;4881976;29;20023;-93
2023/05/10 12:35:43;;;;;;;0.98;0.80;;;16.60;99.90;;;;;;4883432;29;20043;-94
2023/05/10 12:38:33;;;;;;;2.17;0.70;;;17.00;99.90;;;;;;4890125;29;20056;-93
2023/05/10 12:41:01;;;;;;;0.93;0.88;;;17.50;99.90;;;;;;4873770;29;20033;-95
2023/05/10 12:43:27;;;;;;;1.75;0.88;;;17.90;99.90;;;;;;4886034;29;20546;-94
2023/05/10 12:45:53;;;;;;;2.03;0.80;;;18.00;99.90;;;;;;4867523;29;20037;-94
2023/05/10 12:48:19;;;;;;;1.25;1.00;;;18.10;99.90;;;;;;4867471;29;20029;-94
2023/05/10 12:50:46;;;;;;;2.15;1.00;;;18.00;99.90;;;;;;4868402;29;20045;-94